Banner, Wyoming
Current Conditions -  °F | °C
As of 1:53 AM on Friday 31 Oct 2014 (Local Time) from KSHR Reporting Station
Clear Clear  
Wind Chill: 38°   Ceiling: Unl
Heat Index: 43°   Visibility: 10mi
Dew Point: 27°   Wind: 8mph
Humidity: 53%   Direction: 140°SE
Pressure: 30.17"   Gusts: NA
Location:  44.6°N, 106.87°W
Report Text: KSHR 310753Z AUTO 14007KT 10SM CLR 06/M03 A3017 RMK AO2 SLP210 T00611028 TSNO
Loading
Personal Weather Stations






























Interactive Weather Map New forecast layout! Learn more

10-Day Weather Forecast

Advertisements
Track Severe Weather on mobile